Time;durP1;ratioP1;P1;durP2;ratioP2;P2;SDS_P1;SDS_P2;PMS_P1;PMS_P2;Temp;Humidity;BMP_temperature;BMP_pressure;BME280_temperature;BME280_humidity;BME280_pressure;Samples;Min_cycle;Max_cycle;Signal;HPM_P1;HPM_P2
2020/12/27 00:00:30;;;;;;;6.82;2.38;;;;;;;;;;5114086;28;20019;-82
2020/12/27 00:02:56;;;;;;;5.13;2.30;;;;;;;;;;5114133;28;20045;-80
2020/12/27 00:05:22;;;;;;;5.00;2.55;;;;;;;;;;5095742;28;20023;-78
2020/12/27 00:07:49;;;;;;;4.68;2.50;;;;;;;;;;5113874;28;20051;-76
2020/12/27 00:10:15;;;;;;;5.50;2.97;;;;;;;;;;5113536;28;20024;-78
2020/12/27 00:12:41;;;;;;;7.35;2.80;;;;;;;;;;5089493;28;20011;-76
2020/12/27 00:15:07;;;;;;;5.40;2.45;;;;;;;;;;5113974;28;20027;-75
2020/12/27 00:17:33;;;;;;;4.57;2.67;;;;;;;;;;5113854;28;20491;-82
2020/12/27 00:19:59;;;;;;;4.90;2.70;;;;;;;;;;5113935;28;20537;-74
2020/12/27 00:22:25;;;;;;;4.20;2.47;;;;;;;;;;5113308;28;20034;-77
2020/12/27 00:24:51;;;;;;;5.13;2.45;;;;;;;;;;5112990;28;20034;-75
2020/12/27 00:27:17;;;;;;;4.53;2.38;;;;;;;;;;5094678;28;20027;-78
2020/12/27 00:29:43;;;;;;;7.05;3.05;;;;;;;;;;5112141;28;20023;-80
2020/12/27 00:32:10;;;;;;;4.22;2.20;;;;;;;;;;5095201;28;20514;-76
2020/12/27 00:34:37;;;;;;;5.20;2.35;;;;;;;;;;5112059;28;20032;-82
2020/12/27 00:37:03;;;;;;;4.32;2.45;;;;;;;;;;5109975;28;20023;-76
2020/12/27 00:39:29;;;;;;;4.25;2.42;;;;;;;;;;5113802;28;20057;-74
2020/12/27 00:42:02;;;;;;;5.22;2.90;;;;;;;;;;5113499;28;20019;-74
2020/12/27 00:44:28;;;;;;;;;;;;;;;;;;5113684;28;20028;-73
2020/12/27 00:46:54;;;;;;;5.95;2.45;;;;;;;;;;5107270;28;19997;-74
2020/12/27 00:49:21;;;;;;;3.97;2.30;;;;;;;;;;5113152;28;20027;-72
2020/12/27 00:51:47;;;;;;;6.70;2.65;;;;;;;;;;5112961;28;20019;-71
2020/12/27 00:54:13;;;;;;;4.57;2.60;;;;;;;;;;5112838;28;20027;-72
2020/12/27 00:56:40;;;;;;;4.85;2.38;;;;;;;;;;5094344;28;20416;-72
2020/12/27 00:59:06;;;;;;;4.93;2.42;;;;;;;;;;5112604;28;20106;-71
2020/12/27 01:01:32;;;;;;;4.65;2.35;;;;;;;;;;5112827;28;20019;-73
2020/12/27 01:03:58;;;;;;;7.53;2.95;;;;;;;;;;5081821;28;20035;-73
2020/12/27 01:06:25;;;;;;;5.60;2.75;;;;;;;;;;5093029;28;20020;-73
2020/12/27 01:08:51;;;;;;;5.07;2.65;;;;;;;;;;5094507;28;20069;-76
2020/12/27 01:11:17;;;;;;;5.60;2.80;;;;;;;;;;5112439;28;20051;-73
2020/12/27 01:13:43;;;;;;;5.65;2.53;;;;;;;;;;5094381;28;20118;-74
2020/12/27 01:16:10;;;;;;;5.57;2.70;;;;;;;;;;5112442;28;20016;-75
2020/12/27 01:18:36;;;;;;;5.43;2.45;;;;;;;;;;5093950;28;20709;-74
2020/12/27 01:21:02;;;;;;;4.70;2.58;;;;;;;;;;5088532;28;20024;-79
2020/12/27 01:23:28;;;;;;;4.57;2.63;;;;;;;;;;5112591;28;20054;-75
2020/12/27 01:25:54;;;;;;;4.43;2.85;;;;;;;;;;5112603;28;20651;-74
2020/12/27 01:28:20;;;;;;;5.80;2.58;;;;;;;;;;5094204;28;20073;-73
2020/12/27 01:30:46;;;;;;;5.05;2.40;;;;;;;;;;5093990;28;20077;-76
2020/12/27 01:33:12;;;;;;;5.55;2.58;;;;;;;;;;5112160;28;20020;-75
2020/12/27 01:35:38;;;;;;;4.65;2.83;;;;;;;;;;5109011;28;20081;-73
2020/12/27 01:38:04;;;;;;;4.43;2.40;;;;;;;;;;5098495;28;20071;-73
2020/12/27 01:40:30;;;;;;;4.95;2.65;;;;;;;;;;5111655;28;20023;-75
2020/12/27 01:43:00;;;;;;;4.95;2.60;;;;;;;;;;5112045;28;20032;-76
2020/12/27 01:45:27;;;;;;;6.55;2.70;;;;;;;;;;5093601;28;20386;-75
2020/12/27 01:47:53;;;;;;;4.65;2.53;;;;;;;;;;5111991;28;20024;-75
2020/12/27 01:50:19;;;;;;;6.60;2.70;;;;;;;;;;5093712;28;20020;-72
2020/12/27 01:52:46;;;;;;;5.35;2.70;;;;;;;;;;5111590;28;20069;-72
2020/12/27 01:55:12;;;;;;;7.05;3.00;;;;;;;;;;5103121;28;20072;-71
2020/12/27 01:57:54;;;;;;;8.25;3.08;;;;;;;;;;5093076;28;20051;-71
2020/12/27 02:00:23;;;;;;;8.15;3.15;;;;;;;;;;5093064;28;20028;-71
2020/12/27 02:02:49;;;;;;;6.00;3.30;;;;;;;;;;5111654;28;20020;-71
2020/12/27 02:05:15;;;;;;;4.75;2.63;;;;;;;;;;5111813;28;20090;-71
2020/12/27 02:07:44;;;;;;;6.10;2.95;;;;;;;;;;5111816;28;20491;-72
2020/12/27 02:10:10;;;;;;;7.30;3.38;;;;;;;;;;5098547;28;20527;-71
2020/12/27 02:12:37;;;;;;;5.60;3.28;;;;;;;;;;5096955;28;20032;-71
2020/12/27 02:15:04;;;;;;;5.95;3.30;;;;;;;;;;5111584;28;20058;-71
2020/12/27 02:17:30;;;;;;;7.55;2.90;;;;;;;;;;5111455;28;20054;-71
2020/12/27 02:19:56;;;;;;;8.02;3.25;;;;;;;;;;5093093;28;20111;-71
2020/12/27 02:22:22;;;;;;;6.10;3.45;;;;;;;;;;5111331;28;20020;-71
2020/12/27 02:24:49;;;;;;;7.07;3.45;;;;;;;;;;5093283;28;20019;-72
2020/12/27 02:27:15;;;;;;;8.38;3.60;;;;;;;;;;5111499;28;20073;-71
2020/12/27 02:29:41;;;;;;;5.85;3.20;;;;;;;;;;5082636;28;20020;-71
2020/12/27 02:32:07;;;;;;;6.25;3.47;;;;;;;;;;5100488;28;20103;-70
2020/12/27 02:34:33;;;;;;;5.88;3.28;;;;;;;;;;5105477;28;20031;-72
2020/12/27 02:36:59;;;;;;;6.20;2.92;;;;;;;;;;5098793;28;20051;-71
2020/12/27 02:39:25;;;;;;;7.53;3.35;;;;;;;;;;5111346;28;20035;-71
2020/12/27 02:41:51;;;;;;;6.75;3.30;;;;;;;;;;5111495;28;20424;-71
2020/12/27 02:44:17;;;;;;;5.63;3.25;;;;;;;;;;5093189;28;20023;-72
2020/12/27 02:46:43;;;;;;;8.20;3.40;;;;;;;;;;5100222;28;20004;-72
2020/12/27 02:49:09;;;;;;;6.97;3.15;;;;;;;;;;5111584;28;20077;-71
2020/12/27 02:51:36;;;;;;;8.43;3.42;;;;;;;;;;5111631;28;20047;-72
2020/12/27 02:54:02;;;;;;;6.05;3.20;;;;;;;;;;5111279;28;20027;-71
2020/12/27 02:56:29;;;;;;;8.02;3.15;;;;;;;;;;5110824;28;20015;-72
2020/12/27 02:58:59;;;;;;;6.45;3.20;;;;;;;;;;5114003;28;20042;-70
2020/12/27 03:01:25;;;;;;;7.05;3.22;;;;;;;;;;5097316;28;20421;-72
2020/12/27 03:03:51;;;;;;;6.53;2.90;;;;;;;;;;5127534;27;20030;-71
2020/12/27 03:06:20;;;;;;;10.98;3.20;;;;;;;;;;5136036;27;20023;-72
2020/12/27 03:08:54;;;;;;;9.13;3.50;;;;;;;;;;5132790;27;20019;-72
2020/12/27 03:11:20;;;;;;;5.20;2.83;;;;;;;;;;5136079;27;20075;-71
2020/12/27 03:13:47;;;;;;;5.20;2.90;;;;;;;;;;5136074;27;20027;-72
2020/12/27 03:16:13;;;;;;;5.20;3.03;;;;;;;;;;5135579;27;20072;-72
2020/12/27 03:18:39;;;;;;;6.15;3.28;;;;;;;;;;5135584;27;20042;-71
2020/12/27 03:21:05;;;;;;;5.22;2.92;;;;;;;;;;5086781;28;20046;-71
2020/12/27 03:23:31;;;;;;;6.82;3.08;;;;;;;;;;5096965;28;20041;-72
2020/12/27 03:25:57;;;;;;;7.20;3.40;;;;;;;;;;5115203;28;20419;-71
2020/12/27 03:28:23;;;;;;;5.93;3.10;;;;;;;;;;5114907;28;20024;-71
2020/12/27 03:30:49;;;;;;;6.60;3.50;;;;;;;;;;5115061;28;20110;-72
2020/12/27 03:33:15;;;;;;;6.03;3.28;;;;;;;;;;5115195;28;20023;-71
2020/12/27 03:35:41;;;;;;;5.85;2.92;;;;;;;;;;5106467;28;20034;-71
2020/12/27 03:38:07;;;;;;;6.38;3.10;;;;;;;;;;5111795;28;20107;-71
2020/12/27 03:40:33;;;;;;;5.38;3.03;;;;;;;;;;5114471;28;20034;-72
2020/12/27 03:42:59;;;;;;;5.75;2.65;;;;;;;;;;5114946;28;20161;-71
2020/12/27 03:45:25;;;;;;;5.05;2.67;;;;;;;;;;5096714;28;20607;-71
2020/12/27 03:47:54;;;;;;;8.38;3.08;;;;;;;;;;5114741;28;20089;-72
2020/12/27 03:50:20;;;;;;;4.97;2.85;;;;;;;;;;5114407;28;20016;-71
2020/12/27 03:52:46;;;;;;;7.40;2.90;;;;;;;;;;5095995;28;20024;-71
2020/12/27 03:55:12;;;;;;;5.30;2.70;;;;;;;;;;5085546;28;20019;-71
2020/12/27 03:57:38;;;;;;;5.88;3.03;;;;;;;;;;5096068;28;20012;-72
2020/12/27 04:00:04;;;;;;;4.90;2.67;;;;;;;;;;5114405;28;20035;-72
2020/12/27 04:02:31;;;;;;;5.05;2.60;;;;;;;;;;5114290;28;20016;-70
2020/12/27 04:04:57;;;;;;;5.18;2.80;;;;;;;;;;5114555;28;20474;-72
2020/12/27 04:07:23;;;;;;;4.82;2.45;;;;;;;;;;5114368;28;20425;-71
2020/12/27 04:09:49;;;;;;;4.72;2.38;;;;;;;;;;5113993;28;20023;-72
2020/12/27 04:12:15;;;;;;;5.00;2.80;;;;;;;;;;5111851;28;20053;-71
2020/12/27 04:14:41;;;;;;;5.50;2.88;;;;;;;;;;5113899;28;20026;-72
2020/12/27 04:17:08;;;;;;;4.80;2.60;;;;;;;;;;5114103;28;20115;-71
2020/12/27 04:19:34;;;;;;;4.22;2.42;;;;;;;;;;5114296;28;20028;-71
2020/12/27 04:22:00;;;;;;;4.28;2.25;;;;;;;;;;5114208;28;20266;-71
2020/12/27 04:24:26;;;;;;;4.72;2.60;;;;;;;;;;5113837;28;20016;-71
2020/12/27 04:26:52;;;;;;;5.30;2.60;;;;;;;;;;5113616;28;20016;-71
2020/12/27 04:29:18;;;;;;;5.15;2.95;;;;;;;;;;5094607;28;20034;-72
2020/12/27 04:31:44;;;;;;;6.50;2.53;;;;;;;;;;5113932;28;20027;-71
2020/12/27 04:34:10;;;;;;;4.60;2.58;;;;;;;;;;5113470;28;20015;-71
2020/12/27 04:36:36;;;;;;;4.43;2.20;;;;;;;;;;5108363;27;20106;-72
2020/12/27 04:39:02;;;;;;;5.40;2.45;;;;;;;;;;5114379;28;20035;-71
2020/12/27 04:41:28;;;;;;;5.45;2.53;;;;;;;;;;5095661;28;20066;-71
2020/12/27 04:43:55;;;;;;;4.90;2.58;;;;;;;;;;5094681;28;20480;-72
2020/12/27 04:46:21;;;;;;;4.47;2.40;;;;;;;;;;5097744;28;20043;-71
2020/12/27 04:48:47;;;;;;;4.85;2.53;;;;;;;;;;5113612;28;20027;-72
2020/12/27 04:51:13;;;;;;;4.22;2.53;;;;;;;;;;5113224;28;20023;-72
2020/12/27 04:53:40;;;;;;;4.63;2.33;;;;;;;;;;5095154;28;20110;-71
2020/12/27 04:56:07;;;;;;;4.57;2.53;;;;;;;;;;5113093;28;20059;-71
2020/12/27 04:58:33;;;;;;;5.38;2.70;;;;;;;;;;5113351;28;20027;-71
2020/12/27 05:01:03;;;;;;;5.43;2.40;;;;;;;;;;5093405;28;20024;-72
2020/12/27 05:03:29;;;;;;;3.65;2.08;;;;;;;;;;5107357;28;20020;-72
2020/12/27 05:05:56;;;;;;;5.13;2.60;;;;;;;;;;5094749;28;20020;-71
2020/12/27 05:08:22;;;;;;;4.57;2.53;;;;;;;;;;5095064;28;20045;-72
2020/12/27 05:10:49;;;;;;;4.28;2.15;;;;;;;;;;5094894;28;20026;-71
2020/12/27 05:13:16;;;;;;;4.32;2.50;;;;;;;;;;5112881;28;20106;-71
2020/12/27 05:15:42;;;;;;;4.82;2.40;;;;;;;;;;5094493;28;20030;-72
2020/12/27 05:18:09;;;;;;;6.60;2.55;;;;;;;;;;5110106;28;20047;-71
2020/12/27 05:20:36;;;;;;;4.50;2.35;;;;;;;;;;5080542;28;20398;-71
2020/12/27 05:23:03;;;;;;;5.97;2.60;;;;;;;;;;5112569;28;20035;-71
2020/12/27 05:25:30;;;;;;;4.25;2.50;;;;;;;;;;5112726;28;20042;-71
2020/12/27 05:28:01;;;;;;;3.85;2.13;;;;;;;;;;5112803;28;20023;-71
2020/12/27 05:30:27;;;;;;;4.72;2.47;;;;;;;;;;5094473;28;20466;-72
2020/12/27 05:32:54;;;;;;;4.60;2.45;;;;;;;;;;5112540;28;20047;-71
2020/12/27 05:35:20;;;;;;;6.72;2.40;;;;;;;;;;5107180;28;20099;-72
2020/12/27 05:37:47;;;;;;;4.97;2.63;;;;;;;;;;5108814;28;20022;-72
2020/12/27 05:40:14;;;;;;;5.13;2.45;;;;;;;;;;5094241;28;20497;-71
2020/12/27 05:42:40;;;;;;;4.07;2.20;;;;;;;;;;5112599;28;20091;-71
2020/12/27 05:45:13;;;;;;;4.57;2.33;;;;;;;;;;5094020;28;20028;-72
2020/12/27 05:47:40;;;;;;;4.38;2.20;;;;;;;;;;5112299;28;20026;-71
2020/12/27 05:50:07;;;;;;;5.50;2.67;;;;;;;;;;5112368;28;20479;-71
2020/12/27 05:52:40;;;;;;;6.20;2.60;;;;;;;;;;5088348;28;20028;-71
2020/12/27 05:55:09;;;;;;;5.18;2.58;;;;;;;;;;5102684;28;20020;-71
2020/12/27 05:57:35;;;;;;;5.25;2.38;;;;;;;;;;5112241;28;20046;-71
2020/12/27 06:00:05;;;;;;;6.63;2.40;;;;;;;;;;5112002;28;20436;-71
2020/12/27 06:02:37;;;;;;;5.10;2.70;;;;;;;;;;5093903;28;20103;-71
2020/12/27 06:05:30;;;;;;;6.82;2.88;;;;;;;;;;5093332;28;20054;-71
2020/12/27 06:08:00;;;;;;;5.03;2.50;;;;;;;;;;5107246;28;20200;-71
2020/12/27 06:10:30;;;;;;;5.78;3.00;;;;;;;;;;5103777;28;20042;-72
2020/12/27 06:13:02;;;;;;;5.75;2.92;;;;;;;;;;5093460;28;20016;-70
2020/12/27 06:15:29;;;;;;;6.47;2.92;;;;;;;;;;5111969;28;20058;-72
2020/12/27 06:17:55;;;;;;;4.57;2.67;;;;;;;;;;5111567;28;20047;-71
2020/12/27 06:20:22;;;;;;;5.07;3.00;;;;;;;;;;5111933;28;20046;-72
2020/12/27 06:22:51;;;;;;;5.07;2.67;;;;;;;;;;5111804;28;20115;-72
2020/12/27 06:25:18;;;;;;;6.45;3.17;;;;;;;;;;5111673;28;20437;-71
2020/12/27 06:27:44;;;;;;;4.82;2.88;;;;;;;;;;5095861;28;20103;-72
2020/12/27 06:30:21;;;;;;;4.93;2.97;;;;;;;;;;5111109;28;20390;-72
2020/12/27 06:32:54;;;;;;;4.95;2.75;;;;;;;;;;5092620;28;20031;-72
2020/12/27 06:35:19;;;;;;;;;;;;;;;;;;5106020;28;20019;-71
2020/12/27 06:37:46;;;;;;;5.53;2.85;;;;;;;;;;5123305;27;19904;-71
2020/12/27 06:40:13;;;;;;;6.05;3.00;;;;;;;;;;5093002;28;20511;-71
2020/12/27 06:42:40;;;;;;;5.05;2.80;;;;;;;;;;5111397;28;20019;-72
2020/12/27 06:45:06;;;;;;;7.53;3.28;;;;;;;;;;5103179;28;20027;-72
2020/12/27 06:47:46;;;;;;;6.80;2.90;;;;;;;;;;5109931;28;20023;-72
2020/12/27 06:50:20;;;;;;;4.90;3.10;;;;;;;;;;5111439;28;20016;-72
2020/12/27 06:52:46;;;;;;;4.90;2.90;;;;;;;;;;5088766;28;20032;-71
2020/12/27 06:55:31;;;;;;;8.07;3.03;;;;;;;;;;5102816;28;20102;-72
2020/12/27 06:58:13;;;;;;;6.43;3.08;;;;;;;;;;5093065;28;20045;-71
2020/12/27 07:00:39;;;;;;;18.47;4.57;;;;;;;;;;5104593;28;20028;-72
2020/12/27 07:03:32;;;;;;;6.20;3.20;;;;;;;;;;5101618;28;20016;-72
2020/12/27 07:05:58;;;;;;;9.68;3.10;;;;;;;;;;5106746;28;20168;-71
2020/12/27 07:08:43;;;;;;;5.63;3.08;;;;;;;;;;5111553;28;20019;-71
2020/12/27 07:11:09;;;;;;;6.95;3.25;;;;;;;;;;5111082;28;20023;-71
2020/12/27 07:13:44;;;;;;;5.43;3.00;;;;;;;;;;5093120;28;20026;-71
2020/12/27 07:16:11;;;;;;;6.97;3.30;;;;;;;;;;5110122;28;20023;-71
2020/12/27 07:18:37;;;;;;;5.65;3.00;;;;;;;;;;5103020;28;20028;-72
2020/12/27 07:21:03;;;;;;;7.25;2.80;;;;;;;;;;5111088;28;20386;-72
2020/12/27 07:23:33;;;;;;;8.85;3.10;;;;;;;;;;5111172;28;20029;-71
2020/12/27 07:26:03;;;;;;;4.60;2.80;;;;;;;;;;5111125;28;20103;-71
2020/12/27 07:28:30;;;;;;;7.30;2.80;;;;;;;;;;5111237;28;20024;-71
2020/12/27 07:31:00;;;;;;;5.65;2.58;;;;;;;;;;5092555;28;20035;-72
2020/12/27 07:33:29;;;;;;;7.38;2.90;;;;;;;;;;5111027;28;20015;-72
2020/12/27 07:36:00;;;;;;;4.80;2.75;;;;;;;;;;5093976;28;20027;-72
2020/12/27 07:38:41;;;;;;;6.38;3.17;;;;;;;;;;5110729;28;20032;-72
2020/12/27 07:41:08;;;;;;;5.93;3.40;;;;;;;;;;5110828;28;20062;-72
2020/12/27 07:43:35;;;;;;;6.60;3.20;;;;;;;;;;5111213;28;20012;-71
2020/12/27 07:46:07;;;;;;;6.47;3.20;;;;;;;;;;5114644;28;20077;-71
2020/12/27 07:48:33;;;;;;;6.38;3.03;;;;;;;;;;5114674;28;20098;-71
2020/12/27 07:51:12;;;;;;;6.38;3.55;;;;;;;;;;5094853;28;20099;-72
2020/12/27 07:53:38;;;;;;;6.32;3.75;;;;;;;;;;5109756;28;20027;-72
2020/12/27 07:56:05;;;;;;;6.03;3.60;;;;;;;;;;5114488;28;20019;-72
2020/12/27 07:58:31;;;;;;;6.43;3.20;;;;;;;;;;5114576;28;20093;-71
2020/12/27 08:00:58;;;;;;;6.55;3.33;;;;;;;;;;5095306;28;20500;-72
2020/12/27 08:03:24;;;;;;;6.70;3.75;;;;;;;;;;5114374;28;20024;-72
2020/12/27 08:05:59;;;;;;;6.80;3.70;;;;;;;;;;5114333;28;20023;-71
2020/12/27 08:08:25;;;;;;;8.40;3.50;;;;;;;;;;5109510;28;20020;-71
2020/12/27 08:10:53;;;;;;;6.25;3.40;;;;;;;;;;5102702;28;20592;-72
2020/12/27 08:13:21;;;;;;;6.13;3.30;;;;;;;;;;5095868;28;20027;-72
2020/12/27 08:15:47;;;;;;;6.30;3.25;;;;;;;;;;5114255;28;20047;-72
2020/12/27 08:18:13;;;;;;;7.10;3.65;;;;;;;;;;5095597;28;20048;-73
2020/12/27 08:20:49;;;;;;;5.68;3.40;;;;;;;;;;5114152;28;20024;-72
2020/12/27 08:23:16;;;;;;;6.22;3.60;;;;;;;;;;5113877;28;20034;-72
2020/12/27 08:25:42;;;;;;;5.78;3.05;;;;;;;;;;5088190;28;20027;-72
2020/12/27 08:28:09;;;;;;;5.38;3.10;;;;;;;;;;5112985;28;20027;-72
2020/12/27 08:30:35;;;;;;;8.38;3.63;;;;;;;;;;5113990;28;20024;-71
2020/12/27 08:33:09;;;;;;;5.90;3.55;;;;;;;;;;5113689;28;20022;-72
2020/12/27 08:35:36;;;;;;;5.45;3.10;;;;;;;;;;5110397;28;20023;-72
2020/12/27 08:38:11;;;;;;;5.72;3.25;;;;;;;;;;5113707;28;20031;-72
2020/12/27 08:40:39;;;;;;;7.82;3.30;;;;;;;;;;5095378;28;20627;-72
2020/12/27 08:43:09;;;;;;;8.35;3.42;;;;;;;;;;5089152;28;20043;-72
2020/12/27 08:45:37;;;;;;;5.25;2.88;;;;;;;;;;5113132;28;20032;-72
2020/12/27 08:48:09;;;;;;;5.55;2.65;;;;;;;;;;5100241;27;20016;-72
2020/12/27 08:50:36;;;;;;;5.50;2.90;;;;;;;;;;5119983;27;20024;-72
2020/12/27 08:53:03;;;;;;;7.32;2.90;;;;;;;;;;5113716;27;20028;-72
2020/12/27 08:55:30;;;;;;;6.13;2.70;;;;;;;;;;5120380;27;20039;-72
2020/12/27 08:57:57;;;;;;;8.70;3.10;;;;;;;;;;5114094;27;20114;-72
2020/12/27 09:00:31;;;;;;;5.55;2.92;;;;;;;;;;5106965;27;20125;-78
2020/12/27 09:02:57;;;;;;;5.50;3.10;;;;;;;;;;5107638;28;20027;-78
2020/12/27 09:05:34;;;;;;;8.82;2.90;;;;;;;;;;5108967;27;20032;-78
2020/12/27 09:08:00;;;;;;;8.40;2.65;;;;;;;;;;5091826;28;20115;-74
2020/12/27 09:10:30;;;;;;;8.88;2.90;;;;;;;;;;5111043;28;20061;-74
2020/12/27 09:13:03;;;;;;;6.78;3.03;;;;;;;;;;5112363;28;20046;-73
2020/12/27 09:15:38;;;;;;;6.53;3.08;;;;;;;;;;5091097;28;20015;-74
2020/12/27 09:18:06;;;;;;;7.97;2.75;;;;;;;;;;5109636;28;20423;-74
2020/12/27 09:20:33;;;;;;;4.70;2.70;;;;;;;;;;5112302;28;20378;-75
2020/12/27 09:22:59;;;;;;;6.15;3.10;;;;;;;;;;5111901;28;20020;-73
2020/12/27 09:25:26;;;;;;;5.93;2.63;;;;;;;;;;5093426;28;20011;-74
2020/12/27 09:27:53;;;;;;;6.38;3.08;;;;;;;;;;5110436;28;20016;-75
2020/12/27 09:30:20;;;;;;;7.93;2.83;;;;;;;;;;5111850;28;20077;-74
2020/12/27 09:32:47;;;;;;;11.23;3.97;;;;;;;;;;5111953;28;20020;-74
2020/12/27 09:35:23;;;;;;;5.30;2.97;;;;;;;;;;5091474;28;20020;-75
2020/12/27 09:37:49;;;;;;;5.07;2.90;;;;;;;;;;5090644;28;20112;-77
2020/12/27 09:40:19;;;;;;;7.32;2.90;;;;;;;;;;5111606;28;20027;-79
2020/12/27 09:42:46;;;;;;;5.30;2.80;;;;;;;;;;5093659;28;20049;-85
2020/12/27 09:45:17;;;;;;;5.43;2.58;;;;;;;;;;5089792;28;20410;-78
2020/12/27 09:47:49;;;;;;;5.68;2.92;;;;;;;;;;5093304;28;20068;-78
2020/12/27 09:50:15;;;;;;;;;;;;;;;;;;5110288;28;20042;-75
2020/12/27 09:52:47;;;;;;;5.45;3.03;;;;;;;;;;5092917;28;19904;-75
2020/12/27 09:55:14;;;;;;;4.93;2.83;;;;;;;;;;5090510;28;20042;-72
2020/12/27 09:57:43;;;;;;;6.28;3.10;;;;;;;;;;5111278;28;20020;-73
2020/12/27 10:00:09;;;;;;;5.22;2.67;;;;;;;;;;5091831;28;20465;-73
2020/12/27 10:02:35;;;;;;;5.78;2.95;;;;;;;;;;5110440;28;20089;-73
2020/12/27 10:05:01;;;;;;;6.32;3.40;;;;;;;;;;5110747;28;20046;-72
2020/12/27 10:07:27;;;;;;;5.30;2.95;;;;;;;;;;5109116;28;20019;-71
2020/12/27 10:09:53;;;;;;;11.30;3.78;;;;;;;;;;5110972;28;20032;-71
2020/12/27 10:12:20;;;;;;;8.75;3.00;;;;;;;;;;5110924;28;20588;-71
2020/12/27 10:14:46;;;;;;;5.80;3.08;;;;;;;;;;5111221;28;20038;-71
2020/12/27 10:17:12;;;;;;;7.22;3.05;;;;;;;;;;5110577;28;20047;-71
2020/12/27 10:19:38;;;;;;;9.48;3.40;;;;;;;;;;5109708;28;20035;-71
2020/12/27 10:22:04;;;;;;;6.90;3.55;;;;;;;;;;5110777;28;20024;-71
2020/12/27 10:24:32;;;;;;;9.40;3.40;;;;;;;;;;5091602;28;20374;-71
2020/12/27 10:26:58;;;;;;;9.73;3.85;;;;;;;;;;5092249;28;20020;-71
2020/12/27 10:29:25;;;;;;;9.75;3.55;;;;;;;;;;5110906;28;20552;-71
2020/12/27 10:31:55;;;;;;;10.32;3.25;;;;;;;;;;5092224;28;20043;-71
2020/12/27 10:34:21;;;;;;;9.57;3.42;;;;;;;;;;5108060;28;20584;-71
2020/12/27 10:36:48;;;;;;;7.32;3.50;;;;;;;;;;5110626;28;20019;-71
2020/12/27 10:39:15;;;;;;;6.43;3.38;;;;;;;;;;5110504;28;20159;-71
2020/12/27 10:41:42;;;;;;;10.25;3.53;;;;;;;;;;5091217;28;20454;-71
2020/12/27 10:44:08;;;;;;;12.27;3.38;;;;;;;;;;5094393;28;20023;-71
2020/12/27 10:46:34;;;;;;;6.65;3.50;;;;;;;;;;5116361;27;20090;-71
2020/12/27 10:49:00;;;;;;;7.40;3.95;;;;;;;;;;5092088;28;20100;-71
2020/12/27 10:51:26;;;;;;;17.83;4.00;;;;;;;;;;5090737;28;20580;-71
2020/12/27 10:53:52;;;;;;;11.43;3.90;;;;;;;;;;5110174;28;20494;-70
2020/12/27 10:56:18;;;;;;;13.40;3.67;;;;;;;;;;5090947;28;20449;-71
2020/12/27 10:58:44;;;;;;;12.75;3.72;;;;;;;;;;5107898;28;20095;-70
2020/12/27 11:01:11;;;;;;;10.77;4.35;;;;;;;;;;5110135;28;20069;-71
2020/12/27 11:03:37;;;;;;;10.23;3.75;;;;;;;;;;5110485;28;20035;-71
2020/12/27 11:06:03;;;;;;;8.95;3.50;;;;;;;;;;5110135;28;20478;-71
2020/12/27 11:08:30;;;;;;;6.97;3.55;;;;;;;;;;5109082;28;20618;-71
2020/12/27 11:10:56;;;;;;;7.40;4.18;;;;;;;;;;5110459;28;20016;-70
2020/12/27 11:13:22;;;;;;;10.95;4.00;;;;;;;;;;5110414;28;20457;-71
2020/12/27 11:15:48;;;;;;;15.32;3.85;;;;;;;;;;5107670;28;20023;-71
2020/12/27 11:18:14;;;;;;;13.18;3.88;;;;;;;;;;5089177;28;20039;-71
2020/12/27 11:20:40;;;;;;;14.75;4.97;;;;;;;;;;5114069;28;20024;-71
2020/12/27 11:23:07;;;;;;;9.63;3.92;;;;;;;;;;5113914;28;20019;-71
2020/12/27 11:25:33;;;;;;;20.30;4.38;;;;;;;;;;5109685;28;20024;-71
2020/12/27 11:28:00;;;;;;;18.88;4.45;;;;;;;;;;5112993;28;20057;-71
2020/12/27 11:30:26;;;;;;;18.92;4.13;;;;;;;;;;5115226;28;20012;-71
2020/12/27 11:32:52;;;;;;;11.60;3.70;;;;;;;;;;5115194;28;20030;-71
2020/12/27 11:35:18;;;;;;;12.00;4.00;;;;;;;;;;5115293;28;20024;-71
2020/12/27 11:37:44;;;;;;;15.60;5.28;;;;;;;;;;5115269;28;20020;-71
2020/12/27 11:40:10;;;;;;;19.08;5.22;;;;;;;;;;5115188;28;20379;-71
2020/12/27 11:42:37;;;;;;;23.02;5.78;;;;;;;;;;5111968;28;20094;-71
2020/12/27 11:45:04;;;;;;;39.35;9.40;;;;;;;;;;5094491;28;20016;-71
2020/12/27 11:47:30;;;;;;;22.88;6.70;;;;;;;;;;5076247;28;20008;-71
2020/12/27 11:49:56;;;;;;;17.40;7.03;;;;;;;;;;5094520;28;20446;-71
2020/12/27 11:52:25;;;;;;;24.35;6.28;;;;;;;;;;5087354;28;20022;-73
2020/12/27 11:54:54;;;;;;;12.93;5.35;;;;;;;;;;5111923;28;20084;-72
2020/12/27 11:57:20;;;;;;;24.88;5.30;;;;;;;;;;5095425;28;20027;-73
2020/12/27 11:59:46;;;;;;;16.50;5.80;;;;;;;;;;5095626;28;20059;-70
2020/12/27 12:02:12;;;;;;;18.17;5.70;;;;;;;;;;5114341;28;20026;-70
2020/12/27 12:04:38;;;;;;;16.33;5.65;;;;;;;;;;5117174;27;20023;-71
2020/12/27 12:07:05;;;;;;;12.32;5.50;;;;;;;;;;5116970;27;20024;-70
2020/12/27 12:09:31;;;;;;;12.45;6.10;;;;;;;;;;5113362;27;20037;-74
2020/12/27 12:11:57;;;;;;;13.75;5.93;;;;;;;;;;5112100;27;20024;-72
2020/12/27 12:14:23;;;;;;;10.95;5.65;;;;;;;;;;5111674;28;20446;-75
2020/12/27 12:16:49;;;;;;;20.80;6.18;;;;;;;;;;5089925;28;20031;-75
2020/12/27 12:19:15;;;;;;;15.45;6.15;;;;;;;;;;5113398;28;20487;-74
2020/12/27 12:21:41;;;;;;;10.70;6.30;;;;;;;;;;5110331;28;20107;-74
2020/12/27 12:24:07;;;;;;;21.17;6.47;;;;;;;;;;5096484;28;20024;-80
2020/12/27 12:26:36;;;;;;;13.80;6.20;;;;;;;;;;5098576;28;20024;-75
2020/12/27 12:29:02;;;;;;;13.93;5.88;;;;;;;;;;5103318;28;20012;-75
2020/12/27 12:31:28;;;;;;;14.15;6.15;;;;;;;;;;5094330;28;20026;-77
2020/12/27 12:33:54;;;;;;;14.77;6.00;;;;;;;;;;5089726;28;20581;-75
2020/12/27 12:36:24;;;;;;;14.93;6.35;;;;;;;;;;5093530;28;20415;-76
2020/12/27 12:38:50;;;;;;;11.10;6.30;;;;;;;;;;5093726;28;20063;-76
2020/12/27 12:41:22;;;;;;;15.57;6.78;;;;;;;;;;5093769;28;20387;-73
2020/12/27 12:43:48;;;;;;;22.63;6.35;;;;;;;;;;5091568;28;20027;-76
2020/12/27 12:46:14;;;;;;;15.63;6.80;;;;;;;;;;5095195;28;20463;-76
2020/12/27 12:48:40;;;;;;;14.38;5.97;;;;;;;;;;5115940;27;20023;-76
2020/12/27 12:51:07;;;;;;;14.40;6.05;;;;;;;;;;5125575;27;20043;-76
2020/12/27 12:53:33;;;;;;;11.57;6.05;;;;;;;;;;5113152;28;20024;-73
2020/12/27 12:55:59;;;;;;;15.13;7.13;;;;;;;;;;5112821;28;20429;-82
2020/12/27 12:58:25;;;;;;;13.57;6.30;;;;;;;;;;5101124;28;20666;-74
2020/12/27 13:00:51;;;;;;;10.90;6.53;;;;;;;;;;5094835;28;20023;-75
2020/12/27 13:03:17;;;;;;;14.98;7.28;;;;;;;;;;5113386;27;20061;-75
2020/12/27 13:05:44;;;;;;;18.40;7.43;;;;;;;;;;5109538;27;20028;-76
2020/12/27 13:08:10;;;;;;;16.48;7.50;;;;;;;;;;5109745;28;20372;-77
2020/12/27 13:10:37;;;;;;;16.10;7.18;;;;;;;;;;5113201;28;20098;-76
2020/12/27 13:13:04;;;;;;;21.35;6.35;;;;;;;;;;5113164;28;20061;-74
2020/12/27 13:15:30;;;;;;;10.75;6.57;;;;;;;;;;5080573;28;20078;-72
2020/12/27 13:17:56;;;;;;;12.70;6.63;;;;;;;;;;5110996;28;20043;-77
2020/12/27 13:20:22;;;;;;;14.93;6.68;;;;;;;;;;5112671;28;20088;-74
2020/12/27 13:22:49;;;;;;;12.55;6.13;;;;;;;;;;5112871;28;20026;-76
2020/12/27 13:25:15;;;;;;;14.20;7.00;;;;;;;;;;5104494;28;20020;-75
2020/12/27 13:27:41;;;;;;;14.38;6.32;;;;;;;;;;5090629;28;20034;-79
2020/12/27 13:30:08;;;;;;;11.70;6.07;;;;;;;;;;5112514;28;20051;-78
2020/12/27 13:32:34;;;;;;;15.25;7.15;;;;;;;;;;5105339;28;20012;-78
2020/12/27 13:35:00;;;;;;;17.23;7.38;;;;;;;;;;5112233;28;20028;-78
2020/12/27 13:37:28;;;;;;;19.63;6.63;;;;;;;;;;5100894;28;20020;-79
2020/12/27 13:39:54;;;;;;;13.25;6.32;;;;;;;;;;5093628;28;20031;-77
2020/12/27 13:42:20;;;;;;;13.45;6.82;;;;;;;;;;5108260;28;20016;-79
2020/12/27 13:44:46;;;;;;;18.73;7.20;;;;;;;;;;5112268;28;20072;-77
2020/12/27 13:47:12;;;;;;;14.95;7.25;;;;;;;;;;5112295;28;20034;-79
2020/12/27 13:49:38;;;;;;;13.63;7.20;;;;;;;;;;5096809;28;20039;-75
2020/12/27 13:52:04;;;;;;;17.02;6.65;;;;;;;;;;5112414;28;20463;-73
2020/12/27 13:54:30;;;;;;;18.05;7.07;;;;;;;;;;5107715;28;20024;-73
2020/12/27 13:56:59;;;;;;;19.70;7.15;;;;;;;;;;5091485;28;20042;-73
2020/12/27 13:59:25;;;;;;;26.23;7.35;;;;;;;;;;5082457;28;20054;-74
2020/12/27 14:01:52;;;;;;;20.92;7.18;;;;;;;;;;5107968;27;20055;-72
2020/12/27 14:04:18;;;;;;;21.35;7.90;;;;;;;;;;5104000;27;20055;-72
2020/12/27 14:06:44;;;;;;;18.92;6.85;;;;;;;;;;5110066;28;20504;-70
2020/12/27 14:09:10;;;;;;;14.60;7.25;;;;;;;;;;5111345;28;20052;-79
2020/12/27 14:11:38;;;;;;;22.85;6.75;;;;;;;;;;5095464;28;20550;-80
2020/12/27 14:14:04;;;;;;;19.15;7.60;;;;;;;;;;5124901;27;20023;-78
2020/12/27 14:16:36;;;;;;;21.60;8.45;;;;;;;;;;5105571;27;20049;-78
2020/12/27 14:19:02;;;;;;;14.30;8.57;;;;;;;;;;5115303;27;20079;-78
2020/12/27 14:21:30;;;;;;;14.75;7.70;;;;;;;;;;5104079;28;20052;-80
2020/12/27 14:23:56;;;;;;;16.90;7.53;;;;;;;;;;5099536;27;20478;-80
2020/12/27 14:26:22;;;;;;;16.55;7.50;;;;;;;;;;5117066;27;20030;-79
2020/12/27 14:28:48;;;;;;;20.13;7.32;;;;;;;;;;5107891;27;20493;-80
2020/12/27 14:31:15;;;;;;;14.43;8.13;;;;;;;;;;5127125;27;20099;-77
2020/12/27 14:33:41;;;;;;;16.58;7.97;;;;;;;;;;5119596;27;20023;-80
2020/12/27 14:36:10;;;;;;;21.70;7.90;;;;;;;;;;5119507;27;20031;-80
2020/12/27 14:38:36;;;;;;;18.38;8.43;;;;;;;;;;5129683;27;20043;-80
2020/12/27 14:41:02;;;;;;;17.63;7.90;;;;;;;;;;5085389;27;20505;-79